Time;durP1;ratioP1;P1;durP2;ratioP2;P2;SDS_P1;SDS_P2;PMS_P1;PMS_P2;Temp;Humidity;BMP_temperature;BMP_pressure;BME280_temperature;BME280_humidity;BME280_pressure;Samples;Min_cycle;Max_cycle;Signal;HPM_P1;HPM_P2
2023/10/13 00:02:02;;;;;;;;;;;;;;;9.85;100.00;100653.69;4950894;28;19914;-76
2023/10/13 00:04:28;;;;;;;;;;;;;;;9.81;100.00;100651.50;4961461;28;19917;-78
2023/10/13 00:06:56;;;;;;;;;;;;;;;9.85;100.00;100651.00;4942874;28;19937;-77
2023/10/13 00:09:25;;;;;;;;;;;;;;;9.90;100.00;100642.53;4966747;28;20349;-76
2023/10/13 00:11:52;;;;;;;;;;;;;;;10.07;100.00;100652.28;4967293;28;19914;-76
2023/10/13 00:14:18;;;;;;;;;;;;;;;10.07;100.00;100633.63;4967135;28;20783;-76
2023/10/13 00:17:00;;;;;;;;;;;;;;;10.11;100.00;100634.97;4966758;28;19949;-77
2023/10/13 00:19:27;;;;;;;;;;;;;;;10.19;100.00;100630.66;4966523;28;20352;-76
2023/10/13 00:21:55;;;;;;;;;;;;;;;10.23;100.00;100615.97;4966560;28;19955;-77
2023/10/13 00:24:23;;;;;;;;;;;;;;;10.22;100.00;100611.63;4958461;28;19922;-77
2023/10/13 00:26:49;;;;;;;;;;;;;;;10.25;100.00;100604.13;4966968;28;19914;-76
2023/10/13 00:29:17;;;;;;;;;;;;;;;10.28;100.00;100601.19;4944845;28;19922;-76
2023/10/13 00:31:43;;;;;;;;;;;;;;;10.37;100.00;100606.50;4990862;28;20031;-76
2023/10/13 00:39:36;;;;;;;;;;;;;;;10.37;100.00;100587.84;5019385;28;20553;-76
2023/10/13 00:42:17;;;;;;;;;;;;;;;10.44;100.00;100605.72;5025991;28;20012;-76
2023/10/13 00:44:44;;;;;;;;;;;;;;;10.59;100.00;100615.75;5003487;28;19995;-76
2023/10/13 00:47:10;;;;;;;;;;;;;;;10.65;100.00;100612.38;5030094;28;19940;-76
2023/10/13 00:49:39;;;;;;;;;;;;;;;10.67;100.00;100607.72;5013525;28;20403;-76
2023/10/13 00:52:05;;;;;;;;;;;;;;;10.72;100.00;100610.72;5024770;28;19920;-76
2023/10/13 00:54:30;;;;;;;;;;;;;;;10.75;100.00;100610.41;5027012;28;19963;-76
2023/10/13 00:57:12;;;;;;;;;;;;;;;10.70;100.00;100602.91;5025755;28;20007;-76
2023/10/13 00:59:37;;;;;;;;;;;;;;;10.79;100.00;100609.03;5025355;28;20334;-76
2023/10/13 01:04:47;;;;;;;;;;;;;;;10.59;100.00;100597.06;5021307;28;20422;-77
2023/10/13 01:07:12;;;;;;;;;;;;;;;10.55;100.00;100601.88;5021534;28;19917;-77
2023/10/13 01:09:42;;;;;;;;;;;;;;;10.69;100.00;100608.38;5017997;28;19917;-77
2023/10/13 01:12:08;;;;;;;;;;;;;;;10.65;100.00;100602.56;5025187;28;19917;-76
2023/10/13 01:14:35;;;;;;;;;;;;;;;10.34;100.00;100575.66;5009174;28;19921;-77
2023/10/13 01:17:01;;;;;;;;;;;;;;;10.24;100.00;100594.47;5041726;28;19913;-76
2023/10/13 01:19:28;;;;;;;;;;;;;;;10.27;100.00;100598.63;5006841;28;19908;-77
2023/10/13 01:22:04;;;;;;;;;;;;;;;10.38;100.00;100609.03;5009016;28;19917;-77
2023/10/13 01:24:34;;;;;;;;;;;;;;;10.39;100.00;100601.84;4995953;28;19913;-77
2023/10/13 01:27:10;;;;;;;;;;;;;;;10.30;100.00;100593.00;5021437;28;19935;-77
2023/10/13 01:29:36;;;;;;;;;;;;;;;10.41;100.00;100611.38;5034536;28;19920;-77
2023/10/13 01:32:01;;;;;;;;;;;;;;;10.42;100.00;100612.19;5006184;28;19909;-76
2023/10/13 01:34:26;;;;;;;;;;;;;;;10.50;100.00;100602.38;5042060;28;19917;-77
2023/10/13 01:36:53;;;;;;;;;;;;;;;10.35;100.00;100598.69;5025023;28;20822;-76
2023/10/13 01:39:26;;;;;;;;;;;;;;;10.40;100.00;100606.22;5008132;28;20021;-78
2023/10/13 01:41:55;;;;;;;;;;;;;;;10.33;100.00;100600.69;5007614;28;19924;-76
2023/10/13 01:44:21;;;;;;;;;;;;;;;10.29;100.00;100602.00;5022218;28;19909;-76
2023/10/13 01:46:47;;;;;;;;;;;;;;;10.49;100.00;100608.72;5037773;28;19913;-77
2023/10/13 01:49:14;;;;;;;;;;;;;;;10.53;100.00;100594.03;5023884;28;20027;-76
2023/10/13 01:51:40;;;;;;;;;;;;;;;10.58;100.00;100596.19;5019225;28;19919;-76
2023/10/13 01:54:11;;;;;;;;;;;;;;;10.68;100.00;100585.38;5030159;28;19921;-76
2023/10/13 01:56:42;;;;;;;;;;;;;;;10.53;100.00;100571.84;5028222;28;19920;-76
2023/10/13 01:59:09;;;;;;;;;;;;;;;10.43;100.00;100566.66;5028833;28;19924;-77
2023/10/13 02:01:34;;;;;;;;;;;;;;;10.39;100.00;100568.00;5011909;28;20008;-76
2023/10/13 02:04:03;;;;;;;;;;;;;;;10.30;100.00;100574.31;5011702;28;19996;-76
2023/10/13 02:06:32;;;;;;;;;;;;;;;10.46;100.00;100582.34;5045136;28;20414;-76
2023/10/13 02:09:16;;;;;;;;;;;;;;;10.53;100.00;100571.84;5027111;28;19944;-77
2023/10/13 02:11:43;;;;;;;;;;;;;;;10.49;100.00;100562.50;5012083;28;20364;-77
2023/10/13 02:14:11;;;;;;;;;;;;;;;10.35;100.00;100561.34;5029579;28;19917;-77
2023/10/13 02:16:36;;;;;;;;;;;;;;;10.38;100.00;100557.50;5011919;28;19920;-77
2023/10/13 02:19:05;;;;;;;;;;;;;;;10.66;100.00;100552.66;4992591;28;19910;-77
2023/10/13 02:21:38;;;;;;;;;;;;;;;10.79;100.00;100550.28;5029606;28;19917;-77
2023/10/13 02:24:04;;;;;;;;;;;;;;;10.77;100.00;100531.78;5012922;28;19913;-77
2023/10/13 02:26:30;;;;;;;;;;;;;;;10.64;100.00;100519.97;5044837;28;19924;-78
2023/10/13 02:29:00;;;;;;;;;;;;;;;10.62;100.00;100522.78;5021010;28;19913;-77
2023/10/13 02:31:27;;;;;;;;;;;;;;;10.61;100.00;100504.28;5021495;28;19974;-77
2023/10/13 02:33:53;;;;;;;;;;;;;;;10.65;100.00;100508.25;5005234;28;19916;-77
2023/10/13 02:36:22;;;;;;;;;;;;;;;10.68;100.00;100503.44;5027504;28;19921;-77
2023/10/13 02:38:50;;;;;;;;;;;;;;;10.73;100.00;100492.25;5010980;28;20751;-77
2023/10/13 02:41:27;;;;;;;;;;;;;;;10.89;100.00;100486.88;5043938;28;19978;-76
2023/10/13 02:43:53;;;;;;;;;;;;;;;10.82;100.00;100469.03;5027984;28;19952;-77
2023/10/13 02:46:21;;;;;;;;;;;;;;;10.91;100.00;100481.34;5044040;28;19952;-78
2023/10/13 02:48:53;;;;;;;;;;;;;;;10.87;100.00;100475.53;5027484;28;20710;-78
2023/10/13 02:51:31;;;;;;;;;;;;;;;10.91;100.00;100479.53;5010883;28;19925;-77
2023/10/13 02:54:02;;;;;;;;;;;;;;;11.03;100.00;100479.13;5019086;28;20355;-76
2023/10/13 02:56:28;;;;;;;;;;;;;;;10.87;100.00;100467.50;5001779;28;19923;-78
2023/10/13 02:58:56;;;;;;;;;;;;;;;10.90;100.00;100467.16;5033618;28;20007;-76
2023/10/13 03:01:26;;;;;;;;;;;;;;;10.92;100.00;100472.34;5013647;28;19920;-76
2023/10/13 03:03:55;;;;;;;;;;;;;;;11.14;100.00;100474.28;5010910;28;20364;-76
2023/10/13 03:06:22;;;;;;;;;;;;;;;11.19;100.00;100461.22;5028331;28;19919;-77
2023/10/13 03:08:47;;;;;;;;;;;;;;;11.27;100.00;100467.53;5027252;28;19919;-77
2023/10/13 03:11:13;;;;;;;;;;;;;;;11.28;100.00;100469.19;4993721;28;20385;-76
2023/10/13 03:13:44;;;;;;;;;;;;;;;11.25;100.00;100462.34;5006528;28;19992;-77
2023/10/13 03:16:15;;;;;;;;;;;;;;;11.13;100.00;100445.06;5005890;28;20380;-77
2023/10/13 03:18:51;;;;;;;;;;;;;;;11.03;100.00;100450.59;5003926;28;19913;-77
2023/10/13 03:21:27;;;;;;;;;;;;;;;11.11;100.00;100447.88;5006432;28;20372;-77
2023/10/13 03:23:54;;;;;;;;;;;;;;;11.03;100.00;100436.38;5008179;28;19979;-77
2023/10/13 03:26:20;;;;;;;;;;;;;;;11.27;100.00;100435.47;5009227;28;20541;-77
2023/10/13 03:28:51;;;;;;;;;;;;;;;11.19;100.00;100441.66;5006123;28;19964;-77
2023/10/13 03:31:18;;;;;;;;;;;;;;;11.24;100.00;100422.44;5009233;28;19913;-77
2023/10/13 03:33:45;;;;;;;;;;;;;;;11.11;100.00;100425.69;4991712;28;20459;-77
2023/10/13 03:36:27;;;;;;;;;;;;;;;11.17;100.00;100430.34;5024217;28;19921;-76
2023/10/13 03:38:54;;;;;;;;;;;;;;;11.24;100.00;100428.63;5007287;28;19928;-77
2023/10/13 03:41:20;;;;;;;;;;;;;;;11.19;100.00;100417.63;5008748;28;19922;-77
2023/10/13 03:43:51;;;;;;;;;;;;;;;11.45;100.00;100422.69;5008957;28;19913;-76
2023/10/13 03:46:21;;;;;;;;;;;;;;;11.35;100.00;100412.19;5008715;28;19963;-77
2023/10/13 03:48:52;;;;;;;;;;;;;;;11.29;100.00;100409.41;5007607;28;19959;-77
2023/10/13 03:51:18;;;;;;;;;;;;;;;11.42;100.00;100406.97;5023964;28;19928;-77
2023/10/13 03:53:52;;;;;;;;;;;;;;;11.48;100.00;100394.75;5009219;28;19909;-77
2023/10/13 03:56:26;;;;;;;;;;;;;;;11.29;100.00;100399.53;5007691;28;19921;-78
2023/10/13 03:58:53;;;;;;;;;;;;;;;11.41;100.00;100397.31;5007407;28;20098;-77
2023/10/13 04:01:23;;;;;;;;;;;;;;;11.65;100.00;100392.81;5025550;28;19924;-77
2023/10/13 04:04:03;;;;;;;;;;;;;;;11.70;100.00;100375.19;5027759;28;19920;-77
2023/10/13 04:15:14;;;;;;;;;;;;;;;11.51;100.00;100343.59;5011693;28;19909;-77
2023/10/13 04:17:22;;;;;;;;;;;;;;;11.68;100.00;100353.16;5019449;28;19913;-78
2023/10/13 04:28:15;;;;;;;;;;;;;;;11.69;100.00;100352.16;5017091;28;20011;-79
2023/10/13 04:31:24;;;;;;;;;;;;;;;11.79;100.00;100344.72;5028466;28;19920;-78
2023/10/13 04:33:35;;;;;;;;;;;;;;;11.78;100.00;100340.38;5007894;28;19999;-78
2023/10/13 04:36:21;;;;;;;;;;;;;;;11.93;100.00;100329.75;5020622;28;19909;-78
2023/10/13 04:38:57;;;;;;;;;;;;;;;11.79;100.00;100319.81;5010310;28;20018;-79
2023/10/13 04:41:31;;;;;;;;;;;;;;;11.79;100.00;100317.97;5018584;28;19987;-79
2023/10/13 04:44:48;;;;;;;;;;;;;;;11.96;100.00;100323.19;5021891;28;20324;-80
2023/10/13 05:46:35;;;;;;;;;;;;;;;12.93;100.00;100197.19;5007440;28;20012;-85
2023/10/13 05:51:47;;;;;;;;;;;;;;;12.89;100.00;100180.63;5008510;28;19913;-84
2023/10/13 06:30:20;;;;;;;;;;;;;;;13.69;100.00;100153.66;5033713;22;19932;-80
2023/10/13 06:32:46;;;;;;;;;;;;;;;13.78;100.00;100149.78;5015070;28;19913;-81
2023/10/13 06:35:23;;;;;;;;;;;;;;;13.88;100.00;100152.97;5005781;28;19920;-81
2023/10/13 06:37:49;;;;;;;;;;;;;;;13.83;100.00;100150.03;5009166;28;20288;-81
2023/10/13 06:42:46;;;;;;;;;;;;;;;14.10;100.00;100142.13;5010992;28;19917;-80
2023/10/13 06:45:11;;;;;;;;;;;;;;;14.23;100.00;100135.97;5009383;28;19915;-80
2023/10/13 06:47:42;;;;;;;;;;;;;;;14.09;100.00;100140.44;5008081;28;20003;-80
2023/10/13 06:50:15;;;;;;;;;;;;;;;14.10;100.00;100131.38;5010207;28;19917;-81
2023/10/13 06:52:44;;;;;;;;;;;;;;;14.25;100.00;100134.72;5005825;28;19922;-81
2023/10/13 06:55:23;;;;;;;;;;;;;;;14.22;100.00;100137.00;4991142;28;19910;-79
2023/10/13 06:57:51;;;;;;;;;;;;;;;14.39;100.00;100129.41;4991111;28;19913;-82
2023/10/13 07:00:29;;;;;;;;;;;;;;;14.47;100.00;100132.75;4991571;28;19953;-80
2023/10/13 07:03:17;;;;;;;;;;;;;;;14.51;100.00;100130.47;4993450;28;19917;-80
2023/10/13 07:05:43;;;;;;;;;;;;;;;14.47;100.00;100123.81;5004354;28;19961;-80
2023/10/13 07:08:08;;;;;;;;;;;;;;;14.66;100.00;100120.41;5026472;28;19955;-80
2023/10/13 07:10:51;;;;;;;;;;;;;;;14.78;100.00;100110.69;5026963;28;20299;-80
2023/10/13 07:13:17;;;;;;;;;;;;;;;14.76;100.00;100112.75;5001792;28;19917;-80
2023/10/13 07:15:45;;;;;;;;;;;;;;;14.77;100.00;100106.38;5004388;28;19917;-79
2023/10/13 07:18:13;;;;;;;;;;;;;;;14.85;100.00;100099.13;5011982;28;19919;-80
2023/10/13 07:20:43;;;;;;;;;;;;;;;15.01;100.00;100095.19;5011010;28;20008;-81
2023/10/13 07:23:11;;;;;;;;;;;;;;;15.02;100.00;100100.38;5009796;28;19918;-80
2023/10/13 07:25:37;;;;;;;;;;;;;;;15.03;100.00;100083.22;5010356;28;20330;-80
2023/10/13 07:28:08;;;;;;;;;;;;;;;15.06;100.00;100080.09;5010104;28;19949;-80
2023/10/13 07:30:41;;;;;;;;;;;;;;;15.27;100.00;100075.53;5009108;28;19913;-80
2023/10/13 07:33:07;;;;;;;;;;;;;;;15.28;100.00;100063.72;5008807;28;19917;-81
2023/10/13 07:35:35;;;;;;;;;;;;;;;15.25;100.00;100056.09;5009275;28;20300;-80
2023/10/13 07:38:01;;;;;;;;;;;;;;;15.16;100.00;100042.03;5010574;28;20006;-81
2023/10/13 07:43:00;;;;;;;;;;;;;;;15.34;100.00;100055.66;5010689;28;20286;-84
2023/10/13 07:45:35;;;;;;;;;;;;;;;15.40;100.00;100041.38;5028242;28;19913;-85
2023/10/13 07:48:04;;;;;;;;;;;;;;;15.46;100.00;100031.63;5007824;28;20217;-83
2023/10/13 07:50:33;;;;;;;;;;;;;;;15.43;100.00;100024.00;5002084;28;19944;-83
2023/10/13 07:53:04;;;;;;;;;;;;;;;15.34;100.00;100019.88;5004861;28;19913;-83
2023/10/13 07:55:32;;;;;;;;;;;;;;;15.48;100.00;100010.72;5023423;28;19913;-83
2023/10/13 07:57:58;;;;;;;;;;;;;;;15.39;100.00;100001.22;5004207;28;19913;-84
2023/10/13 08:06:07;;;;;;;;;;;;;;;15.62;100.00;99977.34;5006606;28;19918;-82
2023/10/13 08:08:39;;;;;;;;;;;;;;;15.45;100.00;99976.16;5004297;28;19921;-82
2023/10/13 08:14:11;;;;;;;;;;;;;;;15.62;100.00;99985.41;5016352;28;19967;-82
2023/10/13 08:16:52;;;;;;;;;;;;;;;15.55;100.00;99968.47;5002777;28;19979;-81
2023/10/13 08:19:19;;;;;;;;;;;;;;;15.71;100.00;99964.50;5001885;28;20377;-83
2023/10/13 08:21:58;;;;;;;;;;;;;;;15.63;100.00;99968.22;5003259;28;19944;-82
2023/10/13 08:47:53;;;;;;;;;;;;;;;15.80;100.00;99930.06;5002042;28;19917;-82
2023/10/13 08:53:26;;;;;;;;;;;;;;;15.98;100.00;99932.03;5004848;28;19986;-80
2023/10/13 08:58:59;;;;;;;;;;;;;;;15.84;100.00;99931.28;5001775;28;19964;-81
2023/10/13 09:01:12;;;;;;;;;;;;;;;15.88;100.00;99921.75;5014094;28;20082;-80
2023/10/13 09:03:39;;;;;;;;;;;;;;;15.93;100.00;99923.78;5009725;28;19932;-82
2023/10/13 09:06:08;;;;;;;;;;;;;;;16.03;100.00;99914.16;5003249;28;20403;-80
2023/10/13 09:08:44;;;;;;;;;;;;;;;16.11;100.00;99914.94;5000262;28;19941;-82
2023/10/13 09:11:12;;;;;;;;;;;;;;;15.74;100.00;99909.44;5019949;28;19918;-81
2023/10/13 09:13:47;;;;;;;;;;;;;;;15.80;100.00;99897.78;5007223;28;19909;-81
2023/10/13 09:16:21;;;;;;;;;;;;;;;15.81;100.00;99899.44;5001663;28;19937;-80
2023/10/13 09:18:46;;;;;;;;;;;;;;;15.86;100.00;99902.28;5004632;28;19917;-79
2023/10/13 09:21:34;;;;;;;;;;;;;;;15.87;100.00;99893.16;4998191;28;19977;-81
2023/10/13 09:26:44;;;;;;;;;;;;;;;15.86;100.00;99874.56;5008428;28;20293;-80
2023/10/13 09:29:19;;;;;;;;;;;;;;;15.82;100.00;99879.53;5002466;28;19956;-82
2023/10/13 09:31:59;;;;;;;;;;;;;;;15.75;100.00;99862.63;4995266;28;20381;-79
2023/10/13 09:34:29;;;;;;;;;;;;;;;15.94;100.00;99861.63;5000157;28;20291;-79
2023/10/13 09:36:56;;;;;;;;;;;;;;;16.02;100.00;99864.06;5021948;28;19941;-82
2023/10/13 09:39:40;;;;;;;;;;;;;;;15.90;100.00;99849.69;5002166;28;19914;-82
2023/10/13 09:42:10;;;;;;;;;;;;;;;15.82;100.00;99858.00;4999210;28;19922;-80
2023/10/13 09:44:37;;;;;;;;;;;;;;;16.06;100.00;99847.47;5005696;28;20295;-83
2023/10/13 09:47:09;;;;;;;;;;;;;;;16.25;100.00;99846.50;5015067;28;19916;-82
2023/10/13 09:49:48;;;;;;;;;;;;;;;16.02;100.00;99831.78;5020915;28;19913;-80
2023/10/13 09:52:19;;;;;;;;;;;;;;;16.08;100.00;99831.94;4998997;28;19993;-80
2023/10/13 09:54:59;;;;;;;;;;;;;;;16.07;100.00;99831.09;5021216;28;20347;-81
2023/10/13 09:57:28;;;;;;;;;;;;;;;15.99;100.00;99831.38;4997530;28;19960;-81
2023/10/13 10:00:06;;;;;;;;;;;;;;;16.03;100.00;99817.25;5006864;28;19917;-82
2023/10/13 10:02:43;;;;;;;;;;;;;;;15.97;100.00;99837.00;4994349;28;19929;-79
2023/10/13 10:05:41;;;;;;;;;;;;;;;15.97;100.00;99826.22;5005708;28;19914;-80
2023/10/13 10:07:59;;;;;;;;;;;;;;;16.04;100.00;99812.72;4998703;28;19942;-79
2023/10/13 10:10:47;;;;;;;;;;;;;;;16.17;100.00;99820.66;5005312;28;20007;-81
2023/10/13 10:13:24;;;;;;;;;;;;;;;16.22;100.00;99814.59;5007523;28;20448;-81
2023/10/13 10:15:51;;;;;;;;;;;;;;;16.49;100.00;99803.56;5009428;28;19913;-80
2023/10/13 10:18:22;;;;;;;;;;;;;;;16.69;100.00;99809.53;5009829;28;20385;-79
2023/10/13 10:20:48;;;;;;;;;;;;;;;16.75;100.00;99797.84;5025216;28;20401;-78
2023/10/13 10:23:28;;;;;;;;;;;;;;;16.46;100.00;99778.72;5010468;28;19913;-79
2023/10/13 10:26:04;;;;;;;;;;;;;;;16.35;100.00;99782.16;5009983;28;19913;-80
2023/10/13 10:28:36;;;;;;;;;;;;;;;16.41;100.00;99780.41;5021363;28;19945;-78
2023/10/13 10:31:05;;;;;;;;;;;;;;;16.50;100.00;99772.88;5009506;28;20403;-80
2023/10/13 10:33:33;;;;;;;;;;;;;;;16.51;100.00;99769.16;5006181;28;20315;-80
2023/10/13 10:35:59;;;;;;;;;;;;;;;16.25;100.00;99750.34;5010798;28;19919;-79
2023/10/13 10:38:32;;;;;;;;;;;;;;;16.38;100.00;99760.16;5012612;28;19920;-78
2023/10/13 10:40:58;;;;;;;;;;;;;;;16.23;100.00;99730.91;5025736;28;20012;-79
2023/10/13 10:43:29;;;;;;;;;;;;;;;16.44;100.00;99737.72;5007769;28;20265;-79
2023/10/13 10:45:59;;;;;;;;;;;;;;;16.53;100.00;99727.47;5008818;28;20319;-78
2023/10/13 10:48:31;;;;;;;;;;;;;;;16.47;100.00;99717.56;5004364;28;19913;-79
2023/10/13 10:50:58;;;;;;;;;;;;;;;16.54;100.00;99688.69;5028045;28;19964;-78
2023/10/13 10:53:33;;;;;;;;;;;;;;;16.32;100.00;99679.41;5019382;28;20334;-78
2023/10/13 10:56:19;;;;;;;;;;;;;;;16.48;100.00;99694.16;5014560;28;20011;-78
2023/10/13 10:58:46;;;;;;;;;;;;;;;16.35;100.00;99679.81;5023733;28;19913;-80
2023/10/13 11:01:12;;;;;;;;;;;;;;;16.36;100.00;99694.09;5007939;28;19925;-77
2023/10/13 11:03:38;;;;;;;;;;;;;;;16.55;100.00;99681.41;5013482;28;19920;-79
2023/10/13 11:06:14;;;;;;;;;;;;;;;16.51;100.00;99682.94;5015955;28;19913;-79
2023/10/13 11:08:41;;;;;;;;;;;;;;;16.59;100.00;99669.13;4999079;28;20361;-79
2023/10/13 11:11:17;;;;;;;;;;;;;;;16.78;100.00;99661.81;5029512;28;19914;-78
2023/10/13 11:13:54;;;;;;;;;;;;;;;16.79;100.00;99650.84;5015859;28;19913;-78
2023/10/13 11:16:34;;;;;;;;;;;;;;;16.49;100.00;99642.75;5015845;28;19913;-80
2023/10/13 11:19:02;;;;;;;;;;;;;;;16.54;100.00;99644.75;5014930;28;19913;-78
2023/10/13 11:21:31;;;;;;;;;;;;;;;16.68;100.00;99638.13;5019955;28;19944;-79
2023/10/13 11:24:08;;;;;;;;;;;;;;;16.83;100.00;99646.66;4992547;28;19913;-77
2023/10/13 11:26:49;;;;;;;;;;;;;;;17.48;100.00;99620.69;5010726;28;20135;-81
2023/10/13 11:29:14;;;;;;;;;;;;;;;17.69;100.00;99603.88;5030870;28;19913;-79
2023/10/13 11:31:41;;;;;;;;;;;;;;;17.81;100.00;99586.88;5013398;28;20011;-81
2023/10/13 11:34:09;;;;;;;;;;;;;;;17.91;100.00;99563.63;5015063;28;20582;-78
2023/10/13 11:36:35;;;;;;;;;;;;;;;17.70;100.00;99543.47;5011053;28;19986;-81
2023/10/13 11:39:00;;;;;;;;;;;;;;;17.57;100.00;99534.81;5009329;28;20019;-80
2023/10/13 11:41:33;;;;;;;;;;;;;;;17.19;100.00;99518.06;5011053;28;19918;-78
2023/10/13 11:44:23;;;;;;;;;;;;;;;17.28;100.00;99513.97;5017536;28;19913;-82
2023/10/13 11:46:55;;;;;;;;;;;;;;;17.31;100.00;99509.97;5008643;28;19913;-79
2023/10/13 11:51:52;;;;;;;;;;;;;;;17.44;100.00;99525.06;5012701;28;19913;-78
2023/10/13 11:54:19;;;;;;;;;;;;;;;17.21;100.00;99521.38;5025953;28;19971;-77
2023/10/13 11:56:48;;;;;;;;;;;;;;;17.33;100.00;99539.41;5008368;28;19921;-78
2023/10/13 11:59:17;;;;;;;;;;;;;;;17.17;100.00;99530.97;5012529;28;19913;-80
2023/10/13 12:07:20;;;;;;;;;;;;;;;17.49;100.00;99520.63;5007503;28;20059;-79
2023/10/13 12:12:40;;;;;;;;;;;;;;;17.45;100.00;99505.16;5017507;28;20489;-79
2023/10/13 12:15:09;;;;;;;;;;;;;;;17.41;100.00;99515.56;5019622;28;19913;-79
2023/10/13 12:17:34;;;;;;;;;;;;;;;17.56;100.00;99520.50;5004749;28;19910;-79
2023/10/13 12:20:00;;;;;;;;;;;;;;;17.63;100.00;99510.38;5010290;28;20008;-79
2023/10/13 12:22:35;;;;;;;;;;;;;;;17.71;100.00;99503.78;5009253;28;19952;-79
2023/10/13 12:25:04;;;;;;;;;;;;;;;18.10;100.00;99506.72;5012988;28;20279;-79
2023/10/13 12:27:45;;;;;;;;;;;;;;;18.07;100.00;99481.00;5027043;28;20526;-79
2023/10/13 12:30:13;;;;;;;;;;;;;;;18.45;100.00;99460.59;5012281;28;19917;-79
2023/10/13 12:32:44;;;;;;;;;;;;;;;18.57;100.00;99441.59;5014119;28;20008;-80
2023/10/13 12:37:39;;;;;;;;;;;;;;;18.26;100.00;99407.84;5008045;28;19909;-80
2023/10/13 12:51:19;;;;;;;;;;;;;;;19.67;100.00;99287.41;5003391;28;19923;-77
2023/10/13 12:53:45;;;;;;;;;;;;;;;19.90;100.00;99258.34;5007913;28;19913;-78
2023/10/13 12:56:11;;;;;;;;;;;;;;;19.72;100.00;99221.69;5006891;28;19913;-77
2023/10/13 12:58:36;;;;;;;;;;;;;;;19.63;100.00;99193.44;5006795;28;19927;-78
2023/10/13 13:01:06;;;;;;;;;;;;;;;19.71;100.00;99228.16;5008608;28;19928;-79
2023/10/13 13:03:32;;;;;;;;;;;;;;;19.76;100.00;99231.72;5007441;28;19932;-76
2023/10/13 13:05:58;;;;;;;;;;;;;;;19.57;100.00;99203.38;5007923;28;19913;-79
2023/10/13 13:08:23;;;;;;;;;;;;;;;20.03;100.00;99215.38;5000511;28;19916;-78
2023/10/13 13:10:49;;;;;;;;;;;;;;;19.91;100.00;99187.69;5007396;28;19914;-80
2023/10/13 13:13:16;;;;;;;;;;;;;;;20.17;100.00;99164.25;5014742;28;19952;-79
2023/10/13 13:15:42;;;;;;;;;;;;;;;20.12;100.00;99153.41;5007796;28;19984;-78
2023/10/13 13:18:11;;;;;;;;;;;;;;;20.30;100.00;99130.44;5006541;28;20372;-77
2023/10/13 13:20:39;;;;;;;;;;;;;;;20.32;100.00;99108.47;5006737;28;19921;-77
2023/10/13 13:23:04;;;;;;;;;;;;;;;20.51;100.00;99093.38;5007066;28;19960;-79
2023/10/13 13:25:30;;;;;;;;;;;;;;;20.49;100.00;98999.84;5005730;28;19945;-79
2023/10/13 13:27:56;;;;;;;;;;;;;;;20.47;100.00;99008.25;5002224;28;19909;-78
2023/10/13 13:30:22;;;;;;;;;;;;;;;20.24;100.00;98994.13;5033348;28;19916;-80
2023/10/13 13:32:47;;;;;;;;;;;;;;;20.09;100.00;99004.09;5007033;28;20387;-79
2023/10/13 13:35:18;;;;;;;;;;;;;;;19.87;100.00;98967.22;5006983;28;20370;-77
2023/10/13 13:37:44;;;;;;;;;;;;;;;19.89;100.00;98988.63;5007171;28;19913;-76
2023/10/13 13:40:17;;;;;;;;;;;;;;;20.08;100.00;99006.00;5006358;28;19975;-79
2023/10/13 13:42:43;;;;;;;;;;;;;;;20.02;100.00;98969.16;5007957;28;20020;-76
2023/10/13 13:45:21;;;;;;;;;;;;;;;20.11;100.00;98913.38;5007507;28;20009;-80
2023/10/13 13:47:46;;;;;;;;;;;;;;;20.45;100.00;98896.56;5007677;28;19921;-77
2023/10/13 13:50:16;;;;;;;;;;;;;;;20.35;100.00;98840.47;5032157;28;19910;-79
2023/10/13 13:52:45;;;;;;;;;;;;;;;20.42;100.00;98788.72;5010992;28;19951;-78
2023/10/13 13:55:11;;;;;;;;;;;;;;;20.37;100.00;98732.63;5011089;28;19985;-76
2023/10/13 13:57:41;;;;;;;;;;;;;;;20.37;100.00;98693.84;5010170;28;19961;-75
2023/10/13 14:00:07;;;;;;;;;;;;;;;20.24;100.00;98685.22;5018957;28;19967;-78
2023/10/13 14:02:35;;;;;;;;;;;;;;;20.06;100.00;98734.59;5009254;28;20630;-79
2023/10/13 14:05:02;;;;;;;;;;;;;;;20.10;100.00;98727.53;5010680;28;19921;-79
2023/10/13 14:07:32;;;;;;;;;;;;;;;19.94;100.00;98678.00;5010952;28;19909;-78
2023/10/13 14:10:06;;;;;;;;;;;;;;;19.97;100.00;98633.31;5011112;28;19913;-78
2023/10/13 14:12:43;;;;;;;;;;;;;;;19.86;100.00;98639.88;5012643;28;19943;-77
2023/10/13 14:15:19;;;;;;;;;;;;;;;19.92;100.00;98642.25;5012068;28;19925;-77
2023/10/13 14:17:46;;;;;;;;;;;;;;;19.85;100.00;98643.63;5016242;28;20280;-80
2023/10/13 14:20:18;;;;;;;;;;;;;;;19.86;100.00;98658.81;5033564;28;20036;-76
2023/10/13 14:22:47;;;;;;;;;;;;;;;19.87;100.00;98709.97;5018245;28;19924;-79
2023/10/13 14:25:14;;;;;;;;;;;;;;;19.85;100.00;98769.00;5035144;28;20383;-79
2023/10/13 14:27:41;;;;;;;;;;;;;;;19.92;100.00;98814.75;5021228;28;19921;-78
2023/10/13 14:30:06;;;;;;;;;;;;;;;19.73;100.00;98882.97;5010882;28;20414;-78
2023/10/13 14:32:32;;;;;;;;;;;;;;;19.79;100.00;98936.06;5014292;28;19913;-77
2023/10/13 14:34:58;;;;;;;;;;;;;;;19.54;100.00;98958.41;5013855;28;19944;-77
2023/10/13 14:37:26;;;;;;;;;;;;;;;19.67;100.00;99026.69;5010608;28;19975;-78
2023/10/13 14:39:56;;;;;;;;;;;;;;;19.66;100.00;99058.34;5019011;28;19956;-77
2023/10/13 14:42:26;;;;;;;;;;;;;;;19.52;100.00;99043.66;5019580;28;19979;-78
2023/10/13 14:44:55;;;;;;;;;;;;;;;19.55;100.00;99053.94;5019739;28;19922;-77
2023/10/13 14:47:24;;;;;;;;;;;;;;;19.56;100.00;99064.53;5017140;28;19908;-77
2023/10/13 14:49:54;;;;;;;;;;;;;;;19.54;100.00;99060.47;5010176;28;19917;-77
2023/10/13 14:52:20;;;;;;;;;;;;;;;19.40;100.00;99070.94;5009320;28;19914;-78
2023/10/13 14:54:46;;;;;;;;;;;;;;;19.32;100.00;99112.03;5012862;28;20035;-78
2023/10/13 14:57:11;;;;;;;;;;;;;;;19.06;100.00;99156.97;5013327;28;20281;-77
2023/10/13 14:59:38;;;;;;;;;;;;;;;19.01;100.00;99213.72;5008453;28;19968;-76
2023/10/13 15:02:04;;;;;;;;;;;;;;;18.87;100.00;99238.47;5009341;28;19925;-77
2023/10/13 15:04:32;;;;;;;;;;;;;;;18.84;100.00;99249.78;5016398;28;20241;-77
2023/10/13 15:06:58;;;;;;;;;;;;;;;18.69;100.00;99217.94;5009602;28;19909;-77
2023/10/13 15:09:23;;;;;;;;;;;;;;;18.72;100.00;99211.22;5016677;28;19913;-77
2023/10/13 15:11:49;;;;;;;;;;;;;;;18.87;100.00;99148.41;5012902;28;20288;-77
2023/10/13 15:14:14;;;;;;;;;;;;;;;18.90;100.00;99132.50;5017600;28;19964;-77
2023/10/13 15:16:41;;;;;;;;;;;;;;;18.88;100.00;99094.06;5018576;28;19913;-78
2023/10/13 15:19:06;;;;;;;;;;;;;;;18.93;100.00;99077.91;5014803;28;19924;-77
2023/10/13 15:21:35;;;;;;;;;;;;;;;18.87;100.00;99067.28;5008530;28;20356;-77
2023/10/13 15:24:04;;;;;;;;;;;;;;;18.86;100.00;99079.19;5009616;28;19913;-77
2023/10/13 15:26:37;;;;;;;;;;;;;;;18.92;100.00;99097.09;5012681;28;20360;-77
2023/10/13 15:29:07;;;;;;;;;;;;;;;18.77;100.00;99095.88;5013824;28;19913;-78
2023/10/13 15:33:58;;;;;;;;;;;;;;;18.62;100.00;99146.25;5010082;28;19913;-76
2023/10/13 15:36:24;;;;;;;;;;;;;;;18.68;100.00;99150.63;5008268;28;19996;-75
2023/10/13 15:38:52;;;;;;;;;;;;;;;18.62;100.00;99151.66;5008243;28;19909;-76
2023/10/13 15:41:22;;;;;;;;;;;;;;;18.59;100.00;99147.56;5010136;28;19913;-77
2023/10/13 15:43:49;;;;;;;;;;;;;;;18.60;100.00;99170.81;5001050;28;19940;-77
2023/10/13 15:46:22;;;;;;;;;;;;;;;18.53;100.00;99172.91;5022412;28;19913;-75
2023/10/13 15:48:48;;;;;;;;;;;;;;;18.51;100.00;99199.34;5016135;28;20012;-75
2023/10/13 15:51:13;;;;;;;;;;;;;;;18.53;100.00;99198.03;5014733;28;20049;-76
2023/10/13 15:53:39;;;;;;;;;;;;;;;18.52;100.00;99185.59;5026302;28;19917;-76
2023/10/13 15:56:11;;;;;;;;;;;;;;;18.60;100.00;99170.00;5025305;28;20000;-77
2023/10/13 15:58:45;;;;;;;;;;;;;;;18.45;100.00;99152.56;5007860;28;19921;-78
2023/10/13 16:01:14;;;;;;;;;;;;;;;18.59;100.00;99142.16;5005587;28;19929;-78
2023/10/13 16:03:43;;;;;;;;;;;;;;;18.55;100.00;99136.44;5006198;28;19924;-78